sensor_id;sensor_type;location;lat;lon;timestamp;temperature;humidity
71942;DHT22;59997;53.300;-6.260;2022-08-11T00:01:23;13.78;93.69
71942;DHT22;59997;53.300;-6.260;2022-08-11T00:04:02;13.71;93.70
71942;DHT22;59997;53.300;-6.260;2022-08-11T00:06:30;13.64;93.59
71942;DHT22;59997;53.300;-6.260;2022-08-11T00:08:58;13.57;93.48
71942;DHT22;59997;53.300;-6.260;2022-08-11T00:11:41;13.48;93.55
71942;DHT22;59997;53.300;-6.260;2022-08-11T00:14:30;13.40;93.77
71942;DHT22;59997;53.300;-6.260;2022-08-11T00:17:07;13.26;93.93
71942;DHT22;59997;53.300;-6.260;2022-08-11T00:19:44;13.15;93.92
71942;DHT22;59997;53.300;-6.260;2022-08-11T00:22:11;13.09;94.11
71942;DHT22;59997;53.300;-6.260;2022-08-11T00:24:44;13.05;94.37
71942;DHT22;59997;53.300;-6.260;2022-08-11T00:27:10;12.99;94.42
71942;DHT22;59997;53.300;-6.260;2022-08-11T00:29:36;12.98;94.66
71942;DHT22;59997;53.300;-6.260;2022-08-11T00:32:03;13.00;94.86
71942;DHT22;59997;53.300;-6.260;2022-08-11T00:34:35;13.02;94.97
71942;DHT22;59997;53.300;-6.260;2022-08-11T00:37:06;12.99;95.04
71942;DHT22;59997;53.300;-6.260;2022-08-11T00:39:40;13.02;95.86
71942;DHT22;59997;53.300;-6.260;2022-08-11T00:45:21;13.10;95.51
71942;DHT22;59997;53.300;-6.260;2022-08-11T00:48:18;13.06;95.17
71942;DHT22;59997;53.300;-6.260;2022-08-11T00:51:09;12.88;95.10
71942;DHT22;59997;53.300;-6.260;2022-08-11T00:53:52;12.77;95.07
71942;DHT22;59997;53.300;-6.260;2022-08-11T01:02:16;12.73;96.38
71942;DHT22;59997;53.300;-6.260;2022-08-11T01:42:55;12.85;96.35
71942;DHT22;59997;53.300;-6.260;2022-08-11T01:46:06;12.73;96.36
71942;DHT22;59997;53.300;-6.260;2022-08-11T01:54:39;12.53;96.43
71942;DHT22;59997;53.300;-6.260;2022-08-11T01:57:33;12.47;96.42
71942;DHT22;59997;53.300;-6.260;2022-08-11T02:00:30;12.34;96.40
71942;DHT22;59997;53.300;-6.260;2022-08-11T02:03:15;12.22;96.44
71942;DHT22;59997;53.300;-6.260;2022-08-11T02:15:10;12.61;97.00
71942;DHT22;59997;53.300;-6.260;2022-08-11T02:20:54;12.18;96.61
71942;DHT22;59997;53.300;-6.260;2022-08-11T02:23:48;12.11;96.81
71942;DHT22;59997;53.300;-6.260;2022-08-11T02:26:23;12.08;96.90
71942;DHT22;59997;53.300;-6.260;2022-08-11T02:32:04;12.04;97.16
71942;DHT22;59997;53.300;-6.260;2022-08-11T02:37:48;12.18;97.18
71942;DHT22;59997;53.300;-6.260;2022-08-11T02:40:21;12.16;97.23
71942;DHT22;59997;53.300;-6.260;2022-08-11T02:43:08;12.18;97.28
71942;DHT22;59997;53.300;-6.260;2022-08-11T02:46:05;12.28;97.74
71942;DHT22;59997;53.300;-6.260;2022-08-11T02:52:40;12.28;97.29
71942;DHT22;59997;53.300;-6.260;2022-08-11T02:58:01;12.40;97.40
71942;DHT22;59997;53.300;-6.260;2022-08-11T03:00:33;12.32;97.15
71942;DHT22;59997;53.300;-6.260;2022-08-11T03:03:30;12.23;97.09
71942;DHT22;59997;53.300;-6.260;2022-08-11T03:06:38;12.22;97.13
71942;DHT22;59997;53.300;-6.260;2022-08-11T03:12:35;12.16;97.21
71942;DHT22;59997;53.300;-6.260;2022-08-11T03:15:28;12.19;97.38
71942;DHT22;59997;53.300;-6.260;2022-08-11T03:18:26;12.18;97.25
71942;DHT22;59997;53.300;-6.260;2022-08-11T03:21:08;12.11;97.23
71942;DHT22;59997;53.300;-6.260;2022-08-11T03:24:07;12.02;97.19
71942;DHT22;59997;53.300;-6.260;2022-08-11T03:29:15;12.13;97.89
71942;DHT22;59997;53.300;-6.260;2022-08-11T03:34:32;12.13;97.16
71942;DHT22;59997;53.300;-6.260;2022-08-11T03:40:35;12.09;97.18
71942;DHT22;59997;53.300;-6.260;2022-08-11T03:52:22;12.12;97.47
71942;DHT22;59997;53.300;-6.260;2022-08-11T03:55:09;12.22;97.32
71942;DHT22;59997;53.300;-6.260;2022-08-11T04:01:19;11.84;97.45
71942;DHT22;59997;53.300;-6.260;2022-08-11T04:06:44;11.64;97.26
71942;DHT22;59997;53.300;-6.260;2022-08-11T04:12:31;11.36;97.29
71942;DHT22;59997;53.300;-6.260;2022-08-11T04:30:46;11.52;97.90
71942;DHT22;59997;53.300;-6.260;2022-08-11T04:54:39;11.36;98.31
71942;DHT22;59997;53.300;-6.260;2022-08-11T05:00:27;11.29;98.26
71942;DHT22;59997;53.300;-6.260;2022-08-11T05:03:52;11.28;98.23
71942;DHT22;59997;53.300;-6.260;2022-08-11T05:13:05;11.30;98.59
71942;DHT22;59997;53.300;-6.260;2022-08-11T05:15:53;11.26;98.43
71942;DHT22;59997;53.300;-6.260;2022-08-11T05:18:48;11.15;98.39
71942;DHT22;59997;53.300;-6.260;2022-08-11T05:21:34;11.08;98.34
71942;DHT22;59997;53.300;-6.260;2022-08-11T05:24:30;11.11;98.47
71942;DHT22;59997;53.300;-6.260;2022-08-11T05:27:18;11.16;98.44
71942;DHT22;59997;53.300;-6.260;2022-08-11T05:30:07;11.10;98.34
71942;DHT22;59997;53.300;-6.260;2022-08-11T05:33:19;11.02;98.25
71942;DHT22;59997;53.300;-6.260;2022-08-11T05:36:20;11.02;98.25
71942;DHT22;59997;53.300;-6.260;2022-08-11T05:39:07;11.04;98.30
71942;DHT22;59997;53.300;-6.260;2022-08-11T05:41:58;11.02;98.33
71942;DHT22;59997;53.300;-6.260;2022-08-11T05:44:44;11.00;98.29
71942;DHT22;59997;53.300;-6.260;2022-08-11T05:47:30;11.11;98.59
71942;DHT22;59997;53.300;-6.260;2022-08-11T05:50:17;11.21;98.82
71942;DHT22;59997;53.300;-6.260;2022-08-11T05:53:03;11.30;98.57
71942;DHT22;59997;53.300;-6.260;2022-08-11T05:55:49;11.40;98.47
71942;DHT22;59997;53.300;-6.260;2022-08-11T05:58:39;11.50;98.39
71942;DHT22;59997;53.300;-6.260;2022-08-11T06:01:08;11.66;98.62
71942;DHT22;59997;53.300;-6.260;2022-08-11T06:03:34;11.77;98.79
71942;DHT22;59997;53.300;-6.260;2022-08-11T06:06:26;11.92;98.54
71942;DHT22;59997;53.300;-6.260;2022-08-11T06:08:55;12.12;98.44
71942;DHT22;59997;53.300;-6.260;2022-08-11T06:11:23;12.21;98.41
71942;DHT22;59997;53.300;-6.260;2022-08-11T06:13:49;12.36;98.47
71942;DHT22;59997;53.300;-6.260;2022-08-11T06:16:25;12.47;98.41
71942;DHT22;59997;53.300;-6.260;2022-08-11T06:19:02;12.53;98.34
71942;DHT22;59997;53.300;-6.260;2022-08-11T06:21:33;12.68;98.37
71942;DHT22;59997;53.300;-6.260;2022-08-11T06:24:20;12.84;98.30
71942;DHT22;59997;53.300;-6.260;2022-08-11T06:26:48;12.96;98.09
71942;DHT22;59997;53.300;-6.260;2022-08-11T06:29:16;13.16;97.64
71942;DHT22;59997;53.300;-6.260;2022-08-11T06:31:55;13.58;96.45
71942;DHT22;59997;53.300;-6.260;2022-08-11T06:43:20;18.29;73.50
71942;DHT22;59997;53.300;-6.260;2022-08-11T06:45:56;19.02;70.64
71942;DHT22;59997;53.300;-6.260;2022-08-11T06:48:29;19.61;67.86
71942;DHT22;59997;53.300;-6.260;2022-08-11T06:51:03;19.94;69.69
71942;DHT22;59997;53.300;-6.260;2022-08-11T06:53:46;20.26;67.45
71942;DHT22;59997;53.300;-6.260;2022-08-11T06:56:20;20.23;65.33
71942;DHT22;59997;53.300;-6.260;2022-08-11T06:59:06;20.28;64.31
71942;DHT22;59997;53.300;-6.260;2022-08-11T07:02:23;20.81;61.85
71942;DHT22;59997;53.300;-6.260;2022-08-11T07:05:09;21.59;59.08
71942;DHT22;59997;53.300;-6.260;2022-08-11T07:14:52;23.92;51.94
71942;DHT22;59997;53.300;-6.260;2022-08-11T07:17:44;22.27;55.87
71942;DHT22;59997;53.300;-6.260;2022-08-11T07:20:14;22.69;55.06
71942;DHT22;59997;53.300;-6.260;2022-08-11T07:23:10;23.59;52.03
71942;DHT22;59997;53.300;-6.260;2022-08-11T07:25:56;24.21;50.03
71942;DHT22;59997;53.300;-6.260;2022-08-11T07:28:46;24.31;50.97
71942;DHT22;59997;53.300;-6.260;2022-08-11T07:31:31;23.71;52.25
71942;DHT22;59997;53.300;-6.260;2022-08-11T07:34:24;23.92;51.75
71942;DHT22;59997;53.300;-6.260;2022-08-11T07:37:04;24.09;51.51
71942;DHT22;59997;53.300;-6.260;2022-08-11T07:39:36;23.44;53.72
71942;DHT22;59997;53.300;-6.260;2022-08-11T07:42:09;22.68;53.86
71942;DHT22;59997;53.300;-6.260;2022-08-11T07:44:35;22.37;54.79
71942;DHT22;59997;53.300;-6.260;2022-08-11T07:47:27;21.96;57.29
71942;DHT22;59997;53.300;-6.260;2022-08-11T07:50:12;21.58;58.12
71942;DHT22;59997;53.300;-6.260;2022-08-11T07:52:57;21.68;58.55
71942;DHT22;59997;53.300;-6.260;2022-08-11T07:55:25;21.88;58.85
71942;DHT22;59997;53.300;-6.260;2022-08-11T07:57:52;21.82;56.97
71942;DHT22;59997;53.300;-6.260;2022-08-11T08:00:57;21.69;57.83
71942;DHT22;59997;53.300;-6.260;2022-08-11T08:03:43;21.69;61.83
71942;DHT22;59997;53.300;-6.260;2022-08-11T08:06:29;21.88;60.30
71942;DHT22;59997;53.300;-6.260;2022-08-11T08:09:18;22.55;58.42
71942;DHT22;59997;53.300;-6.260;2022-08-11T08:12:04;24.31;55.32
71942;DHT22;59997;53.300;-6.260;2022-08-11T08:14:50;25.27;48.87
71942;DHT22;59997;53.300;-6.260;2022-08-11T08:17:36;25.49;48.61
71942;DHT22;59997;53.300;-6.260;2022-08-11T08:20:50;24.65;50.03
71942;DHT22;59997;53.300;-6.260;2022-08-11T08:23:18;24.52;50.90
71942;DHT22;59997;53.300;-6.260;2022-08-11T08:26:15;25.07;51.89
71942;DHT22;59997;53.300;-6.260;2022-08-11T08:29:05;26.36;47.23
71942;DHT22;59997;53.300;-6.260;2022-08-11T08:31:50;27.56;43.89
71942;DHT22;59997;53.300;-6.260;2022-08-11T08:34:17;28.22;42.39
71942;DHT22;59997;53.300;-6.260;2022-08-11T08:36:50;28.08;42.98
71942;DHT22;59997;53.300;-6.260;2022-08-11T08:39:22;28.53;41.09
71942;DHT22;59997;53.300;-6.260;2022-08-11T08:41:52;28.83;41.32
71942;DHT22;59997;53.300;-6.260;2022-08-11T08:44:20;28.63;41.74
71942;DHT22;59997;53.300;-6.260;2022-08-11T08:47:04;28.63;44.65
71942;DHT22;59997;53.300;-6.260;2022-08-11T08:49:37;28.66;41.21
71942;DHT22;59997;53.300;-6.260;2022-08-11T08:52:06;28.70;41.55
71942;DHT22;59997;53.300;-6.260;2022-08-11T08:54:36;29.14;40.42
71942;DHT22;59997;53.300;-6.260;2022-08-11T08:57:03;29.43;40.33
71942;DHT22;59997;53.300;-6.260;2022-08-11T08:59:33;29.39;38.20
71942;DHT22;59997;53.300;-6.260;2022-08-11T09:02:04;28.87;39.88
71942;DHT22;59997;53.300;-6.260;2022-08-11T09:04:31;29.27;38.67
71942;DHT22;59997;53.300;-6.260;2022-08-11T09:07:09;29.37;37.95
71942;DHT22;59997;53.300;-6.260;2022-08-11T09:09:44;29.67;39.05
71942;DHT22;59997;53.300;-6.260;2022-08-11T09:12:12;30.29;38.99
71942;DHT22;59997;53.300;-6.260;2022-08-11T09:14:47;30.59;36.38
71942;DHT22;59997;53.300;-6.260;2022-08-11T09:17:46;30.64;35.74
71942;DHT22;59997;53.300;-6.260;2022-08-11T09:20:24;30.46;36.55
71942;DHT22;59997;53.300;-6.260;2022-08-11T09:22:54;30.95;35.24
71942;DHT22;59997;53.300;-6.260;2022-08-11T09:25:40;31.25;36.58
71942;DHT22;59997;53.300;-6.260;2022-08-11T09:28:26;30.92;34.33
71942;DHT22;59997;53.300;-6.260;2022-08-11T09:30:56;30.92;35.81
71942;DHT22;59997;53.300;-6.260;2022-08-11T09:33:24;31.53;35.62
71942;DHT22;59997;53.300;-6.260;2022-08-11T09:35:51;31.99;34.49
71942;DHT22;59997;53.300;-6.260;2022-08-11T09:38:18;31.75;32.42
71942;DHT22;59997;53.300;-6.260;2022-08-11T09:41:05;31.63;32.76
71942;DHT22;59997;53.300;-6.260;2022-08-11T09:43:35;31.96;33.40
71942;DHT22;59997;53.300;-6.260;2022-08-11T09:46:27;31.48;34.61
71942;DHT22;59997;53.300;-6.260;2022-08-11T09:48:57;31.85;33.42
71942;DHT22;59997;53.300;-6.260;2022-08-11T09:51:24;31.81;31.28
71942;DHT22;59997;53.300;-6.260;2022-08-11T09:53:51;31.30;33.92
71942;DHT22;59997;53.300;-6.260;2022-08-11T09:56:21;31.48;34.84
71942;DHT22;59997;53.300;-6.260;2022-08-11T09:59:05;32.16;35.41
71942;DHT22;59997;53.300;-6.260;2022-08-11T10:01:40;32.33;34.29
71942;DHT22;59997;53.300;-6.260;2022-08-11T10:04:26;32.78;34.14
71942;DHT22;59997;53.300;-6.260;2022-08-11T10:06:59;33.00;30.37
71942;DHT22;59997;53.300;-6.260;2022-08-11T10:09:28;32.89;30.79
71942;DHT22;59997;53.300;-6.260;2022-08-11T10:12:01;33.20;31.71
71942;DHT22;59997;53.300;-6.260;2022-08-11T10:14:29;33.22;29.16
71942;DHT22;59997;53.300;-6.260;2022-08-11T10:17:17;32.19;30.93
71942;DHT22;59997;53.300;-6.260;2022-08-11T10:19:46;31.51;31.42
71942;DHT22;59997;53.300;-6.260;2022-08-11T10:22:13;31.99;35.21
71942;DHT22;59997;53.300;-6.260;2022-08-11T10:24:58;32.24;32.72
71942;DHT22;59997;53.300;-6.260;2022-08-11T10:27:44;32.76;33.92
71942;DHT22;59997;53.300;-6.260;2022-08-11T10:30:11;33.05;32.35
71942;DHT22;59997;53.300;-6.260;2022-08-11T10:32:56;33.12;31.73
71942;DHT22;59997;53.300;-6.260;2022-08-11T10:35:41;32.79;29.56
71942;DHT22;59997;53.300;-6.260;2022-08-11T10:38:08;32.10;32.94
71942;DHT22;59997;53.300;-6.260;2022-08-11T10:40:40;32.44;30.75
71942;DHT22;59997;53.300;-6.260;2022-08-11T10:43:11;31.98;32.32
71942;DHT22;59997;53.300;-6.260;2022-08-11T10:45:40;31.20;34.27
71942;DHT22;59997;53.300;-6.260;2022-08-11T10:48:28;31.47;32.68
71942;DHT22;59997;53.300;-6.260;2022-08-11T10:50:54;31.86;33.33
71942;DHT22;59997;53.300;-6.260;2022-08-11T10:53:48;31.75;30.89
71942;DHT22;59997;53.300;-6.260;2022-08-11T10:56:36;31.60;32.00
71942;DHT22;59997;53.300;-6.260;2022-08-11T10:59:23;31.37;32.27
71942;DHT22;59997;53.300;-6.260;2022-08-11T11:01:52;30.96;35.17
71942;DHT22;59997;53.300;-6.260;2022-08-11T11:04:23;31.33;31.20
71942;DHT22;59997;53.300;-6.260;2022-08-11T11:07:05;31.25;32.12
71942;DHT22;59997;53.300;-6.260;2022-08-11T11:09:49;31.77;32.22
71942;DHT22;59997;53.300;-6.260;2022-08-11T11:12:38;32.22;30.78
71942;DHT22;59997;53.300;-6.260;2022-08-11T11:15:23;32.41;32.13
71942;DHT22;59997;53.300;-6.260;2022-08-11T11:18:26;31.61;32.43
71942;DHT22;59997;53.300;-6.260;2022-08-11T11:38:20;31.57;32.91
71942;DHT22;59997;53.300;-6.260;2022-08-11T11:40:46;32.09;33.78
71942;DHT22;59997;53.300;-6.260;2022-08-11T11:43:32;31.91;31.54
71942;DHT22;59997;53.300;-6.260;2022-08-11T11:46:00;31.98;33.29
71942;DHT22;59997;53.300;-6.260;2022-08-11T11:48:26;32.32;31.57
71942;DHT22;59997;53.300;-6.260;2022-08-11T11:50:54;32.75;29.95
71942;DHT22;59997;53.300;-6.260;2022-08-11T11:53:19;32.20;30.09
71942;DHT22;59997;53.300;-6.260;2022-08-11T11:55:45;32.50;32.46
71942;DHT22;59997;53.300;-6.260;2022-08-11T11:58:12;31.61;29.23
71942;DHT22;59997;53.300;-6.260;2022-08-11T12:00:57;30.84;29.55
71942;DHT22;59997;53.300;-6.260;2022-08-11T12:03:47;31.03;32.19
71942;DHT22;59997;53.300;-6.260;2022-08-11T12:06:17;31.51;34.68
71942;DHT22;59997;53.300;-6.260;2022-08-11T12:08:48;31.39;30.88
71942;DHT22;59997;53.300;-6.260;2022-08-11T12:11:15;31.37;32.41
71942;DHT22;59997;53.300;-6.260;2022-08-11T12:14:03;31.70;31.80
71942;DHT22;59997;53.300;-6.260;2022-08-11T12:16:29;31.58;34.67
71942;DHT22;59997;53.300;-6.260;2022-08-11T12:19:00;31.23;31.19
71942;DHT22;59997;53.300;-6.260;2022-08-11T12:21:28;30.88;31.05
71942;DHT22;59997;53.300;-6.260;2022-08-11T12:23:56;31.18;33.36
71942;DHT22;59997;53.300;-6.260;2022-08-11T12:26:58;31.25;28.35
71942;DHT22;59997;53.300;-6.260;2022-08-11T12:29:44;31.67;31.00
71942;DHT22;59997;53.300;-6.260;2022-08-11T12:32:11;31.67;27.90
71942;DHT22;59997;53.300;-6.260;2022-08-11T12:34:37;31.86;26.80
71942;DHT22;59997;53.300;-6.260;2022-08-11T12:37:03;31.50;28.72
71942;DHT22;59997;53.300;-6.260;2022-08-11T12:39:34;30.91;31.29
71942;DHT22;59997;53.300;-6.260;2022-08-11T12:42:21;30.50;30.84
71942;DHT22;59997;53.300;-6.260;2022-08-11T12:45:13;30.05;31.75
71942;DHT22;59997;53.300;-6.260;2022-08-11T12:48:02;29.76;32.23
71942;DHT22;59997;53.300;-6.260;2022-08-11T12:51:01;30.25;31.80
71942;DHT22;59997;53.300;-6.260;2022-08-11T12:53:56;30.72;35.53
71942;DHT22;59997;53.300;-6.260;2022-08-11T12:59:29;31.00;30.47
71942;DHT22;59997;53.300;-6.260;2022-08-11T13:02:16;30.37;31.91
71942;DHT22;59997;53.300;-6.260;2022-08-11T13:05:06;30.00;32.52
71942;DHT22;59997;53.300;-6.260;2022-08-11T13:07:34;30.46;34.40
71942;DHT22;59997;53.300;-6.260;2022-08-11T13:10:05;30.88;34.88
71942;DHT22;59997;53.300;-6.260;2022-08-11T13:12:33;31.19;33.02
71942;DHT22;59997;53.300;-6.260;2022-08-11T13:15:19;31.64;31.02
71942;DHT22;59997;53.300;-6.260;2022-08-11T13:17:47;31.41;32.72
71942;DHT22;59997;53.300;-6.260;2022-08-11T13:20:16;31.71;30.99
71942;DHT22;59997;53.300;-6.260;2022-08-11T13:22:47;31.81;32.19
71942;DHT22;59997;53.300;-6.260;2022-08-11T13:25:21;31.53;26.74
71942;DHT22;59997;53.300;-6.260;2022-08-11T13:27:49;31.15;29.02
71942;DHT22;59997;53.300;-6.260;2022-08-11T13:30:16;31.06;27.12
71942;DHT22;59997;53.300;-6.260;2022-08-11T13:33:01;31.39;28.32
71942;DHT22;59997;53.300;-6.260;2022-08-11T13:35:28;31.40;26.51
71942;DHT22;59997;53.300;-6.260;2022-08-11T13:37:54;31.05;26.32
71942;DHT22;59997;53.300;-6.260;2022-08-11T13:40:22;31.23;29.48
71942;DHT22;59997;53.300;-6.260;2022-08-11T13:42:50;30.88;24.02
71942;DHT22;59997;53.300;-6.260;2022-08-11T13:45:21;31.18;27.67
71942;DHT22;59997;53.300;-6.260;2022-08-11T13:47:49;31.46;27.07
71942;DHT22;59997;53.300;-6.260;2022-08-11T13:50:16;31.30;27.59
71942;DHT22;59997;53.300;-6.260;2022-08-11T13:52:45;31.50;26.87
71942;DHT22;59997;53.300;-6.260;2022-08-11T13:55:11;31.41;26.13
71942;DHT22;59997;53.300;-6.260;2022-08-11T13:57:49;30.67;24.40
71942;DHT22;59997;53.300;-6.260;2022-08-11T14:00:17;30.95;26.99
71942;DHT22;59997;53.300;-6.260;2022-08-11T14:02:44;30.81;22.73
71942;DHT22;59997;53.300;-6.260;2022-08-11T14:05:21;30.52;23.06
71942;DHT22;59997;53.300;-6.260;2022-08-11T14:07:52;30.05;25.39
71942;DHT22;59997;53.300;-6.260;2022-08-11T14:10:23;30.19;26.55
71942;DHT22;59997;53.300;-6.260;2022-08-11T14:13:04;30.05;24.10
71942;DHT22;59997;53.300;-6.260;2022-08-11T14:15:51;30.33;24.94
71942;DHT22;59997;53.300;-6.260;2022-08-11T14:18:25;30.33;22.92
71942;DHT22;59997;53.300;-6.260;2022-08-11T14:20:54;30.82;24.00
71942;DHT22;59997;53.300;-6.260;2022-08-11T14:23:45;30.35;21.72
71942;DHT22;59997;53.300;-6.260;2022-08-11T14:26:14;30.36;22.83
71942;DHT22;59997;53.300;-6.260;2022-08-11T14:29:08;30.98;25.02
71942;DHT22;59997;53.300;-6.260;2022-08-11T14:31:37;31.43;23.40
71942;DHT22;59997;53.300;-6.260;2022-08-11T14:34:06;31.47;21.82
71942;DHT22;59997;53.300;-6.260;2022-08-11T14:36:36;31.57;22.57
71942;DHT22;59997;53.300;-6.260;2022-08-11T14:39:26;31.13;22.02
71942;DHT22;59997;53.300;-6.260;2022-08-11T14:41:57;31.31;23.94
71942;DHT22;59997;53.300;-6.260;2022-08-11T14:44:50;31.29;24.15
71942;DHT22;59997;53.300;-6.260;2022-08-11T14:47:38;30.98;23.03
71942;DHT22;59997;53.300;-6.260;2022-08-11T14:50:08;30.56;22.73
71942;DHT22;59997;53.300;-6.260;2022-08-11T14:52:35;30.81;24.86
71942;DHT22;59997;53.300;-6.260;2022-08-11T14:55:03;30.71;23.54
71942;DHT22;59997;53.300;-6.260;2022-08-11T14:57:48;30.61;25.05
71942;DHT22;59997;53.300;-6.260;2022-08-11T15:00:16;30.85;25.06
71942;DHT22;59997;53.300;-6.260;2022-08-11T15:02:45;31.11;24.41
71942;DHT22;59997;53.300;-6.260;2022-08-11T15:05:31;31.41;26.90
71942;DHT22;59997;53.300;-6.260;2022-08-11T15:07:57;31.11;24.75
71942;DHT22;59997;53.300;-6.260;2022-08-11T15:10:24;30.54;24.41
71942;DHT22;59997;53.300;-6.260;2022-08-11T15:12:51;30.63;24.81
71942;DHT22;59997;53.300;-6.260;2022-08-11T15:15:18;30.57;24.66
71942;DHT22;59997;53.300;-6.260;2022-08-11T15:18:05;30.26;24.49
71942;DHT22;59997;53.300;-6.260;2022-08-11T15:20:32;30.11;25.51
71942;DHT22;59997;53.300;-6.260;2022-08-11T15:23:17;30.18;26.11
71942;DHT22;59997;53.300;-6.260;2022-08-11T15:26:17;30.41;27.51
71942;DHT22;59997;53.300;-6.260;2022-08-11T15:28:51;30.00;25.46
71942;DHT22;59997;53.300;-6.260;2022-08-11T15:31:36;29.59;26.79
71942;DHT22;59997;53.300;-6.260;2022-08-11T15:34:25;29.85;26.53
71942;DHT22;59997;53.300;-6.260;2022-08-11T15:37:14;30.00;28.21
71942;DHT22;59997;53.300;-6.260;2022-08-11T15:40:27;30.19;27.71
71942;DHT22;59997;53.300;-6.260;2022-08-11T15:43:18;29.87;27.46
71942;DHT22;59997;53.300;-6.260;2022-08-11T15:46:59;29.53;26.42
71942;DHT22;59997;53.300;-6.260;2022-08-11T15:49:14;29.30;27.49
71942;DHT22;59997;53.300;-6.260;2022-08-11T15:52:06;28.92;29.65
71942;DHT22;59997;53.300;-6.260;2022-08-11T15:54:38;28.83;26.14
71942;DHT22;59997;53.300;-6.260;2022-08-11T15:57:07;28.38;26.87
71942;DHT22;59997;53.300;-6.260;2022-08-11T15:59:36;28.35;29.45
71942;DHT22;59997;53.300;-6.260;2022-08-11T16:02:23;28.29;27.24
71942;DHT22;59997;53.300;-6.260;2022-08-11T16:04:50;28.31;29.76
71942;DHT22;59997;53.300;-6.260;2022-08-11T16:07:19;28.04;29.40
71942;DHT22;59997;53.300;-6.260;2022-08-11T16:12:25;27.59;29.16
71942;DHT22;59997;53.300;-6.260;2022-08-11T16:14:58;27.43;29.30
71942;DHT22;59997;53.300;-6.260;2022-08-11T16:17:45;27.16;30.60
71942;DHT22;59997;53.300;-6.260;2022-08-11T16:20:14;27.07;30.40
71942;DHT22;59997;53.300;-6.260;2022-08-11T16:22:42;26.91;31.12
71942;DHT22;59997;53.300;-6.260;2022-08-11T16:25:20;26.91;31.06
71942;DHT22;59997;53.300;-6.260;2022-08-11T16:27:50;26.91;32.42
71942;DHT22;59997;53.300;-6.260;2022-08-11T16:30:17;27.01;33.22
71942;DHT22;59997;53.300;-6.260;2022-08-11T16:32:47;27.03;33.53
71942;DHT22;59997;53.300;-6.260;2022-08-11T16:35:20;27.12;31.56
71942;DHT22;59997;53.300;-6.260;2022-08-11T16:38:07;26.98;32.48
71942;DHT22;59997;53.300;-6.260;2022-08-11T16:40:53;27.10;34.30
71942;DHT22;59997;53.300;-6.260;2022-08-11T16:43:23;27.15;33.41
71942;DHT22;59997;53.300;-6.260;2022-08-11T16:46:07;27.20;30.25
71942;DHT22;59997;53.300;-6.260;2022-08-11T16:48:53;27.27;31.15
71942;DHT22;59997;53.300;-6.260;2022-08-11T16:51:20;27.36;31.12
71942;DHT22;59997;53.300;-6.260;2022-08-11T16:53:48;27.20;31.75
71942;DHT22;59997;53.300;-6.260;2022-08-11T16:56:18;27.18;32.12
71942;DHT22;59997;53.300;-6.260;2022-08-11T16:59:10;26.94;32.89
71942;DHT22;59997;53.300;-6.260;2022-08-11T17:02:06;26.94;34.65
71942;DHT22;59997;53.300;-6.260;2022-08-11T17:04:38;27.12;33.39
71942;DHT22;59997;53.300;-6.260;2022-08-11T17:07:24;27.28;32.78
71942;DHT22;59997;53.300;-6.260;2022-08-11T17:10:25;27.31;32.49
71942;DHT22;59997;53.300;-6.260;2022-08-11T17:13:13;27.21;32.44
71942;DHT22;59997;53.300;-6.260;2022-08-11T17:15:46;27.18;31.88
71942;DHT22;59997;53.300;-6.260;2022-08-11T17:21:06;27.12;32.66
71942;DHT22;59997;53.300;-6.260;2022-08-11T17:23:37;27.10;32.38
71942;DHT22;59997;53.300;-6.260;2022-08-11T17:26:17;27.16;31.60
71942;DHT22;59997;53.300;-6.260;2022-08-11T17:28:47;27.14;30.52
71942;DHT22;59997;53.300;-6.260;2022-08-11T17:31:22;27.08;30.39
71942;DHT22;59997;53.300;-6.260;2022-08-11T17:34:10;26.98;32.08
71942;DHT22;59997;53.300;-6.260;2022-08-11T17:36:55;27.04;32.07
71942;DHT22;59997;53.300;-6.260;2022-08-11T17:39:28;26.97;31.55
71942;DHT22;59997;53.300;-6.260;2022-08-11T17:41:55;27.08;30.39
71942;DHT22;59997;53.300;-6.260;2022-08-11T17:44:41;26.93;32.15
71942;DHT22;59997;53.300;-6.260;2022-08-11T17:47:27;27.03;30.91
71942;DHT22;59997;53.300;-6.260;2022-08-11T17:50:15;26.91;31.83
71942;DHT22;59997;53.300;-6.260;2022-08-11T17:52:42;26.88;32.76
71942;DHT22;59997;53.300;-6.260;2022-08-11T17:55:27;27.01;31.68
71942;DHT22;59997;53.300;-6.260;2022-08-11T17:58:14;26.94;31.28
71942;DHT22;59997;53.300;-6.260;2022-08-11T18:00:59;26.86;31.04
71942;DHT22;59997;53.300;-6.260;2022-08-11T18:03:27;26.82;31.53
71942;DHT22;59997;53.300;-6.260;2022-08-11T18:06:13;26.60;31.66
71942;DHT22;59997;53.300;-6.260;2022-08-11T18:08:45;26.41;32.53
71942;DHT22;59997;53.300;-6.260;2022-08-11T18:11:32;26.08;32.60
71942;DHT22;59997;53.300;-6.260;2022-08-11T18:14:17;25.94;30.56
71942;DHT22;59997;53.300;-6.260;2022-08-11T18:17:02;26.01;31.59
71942;DHT22;59997;53.300;-6.260;2022-08-11T18:19:47;26.07;31.64
71942;DHT22;59997;53.300;-6.260;2022-08-11T18:22:36;26.16;30.34
71942;DHT22;59997;53.300;-6.260;2022-08-11T18:25:25;25.93;29.60
71942;DHT22;59997;53.300;-6.260;2022-08-11T18:28:12;25.43;31.78
71942;DHT22;59997;53.300;-6.260;2022-08-11T18:31:00;24.79;31.98
71942;DHT22;59997;53.300;-6.260;2022-08-11T18:34:05;24.52;32.11
71942;DHT22;59997;53.300;-6.260;2022-08-11T18:39:44;24.77;31.97
71942;DHT22;59997;53.300;-6.260;2022-08-11T18:42:31;24.59;33.05
71942;DHT22;59997;53.300;-6.260;2022-08-11T18:45:18;23.68;34.66
71942;DHT22;59997;53.300;-6.260;2022-08-11T18:48:10;23.13;33.76
71942;DHT22;59997;53.300;-6.260;2022-08-11T18:50:56;22.73;35.90
71942;DHT22;59997;53.300;-6.260;2022-08-11T18:53:48;22.24;37.63
71942;DHT22;59997;53.300;-6.260;2022-08-11T18:56:33;21.91;37.06
71942;DHT22;59997;53.300;-6.260;2022-08-11T18:59:19;21.75;38.69
71942;DHT22;59997;53.300;-6.260;2022-08-11T19:02:07;21.59;38.86
71942;DHT22;59997;53.300;-6.260;2022-08-11T19:04:54;21.41;39.79
71942;DHT22;59997;53.300;-6.260;2022-08-11T19:07:40;21.27;38.37
71942;DHT22;59997;53.300;-6.260;2022-08-11T19:10:26;21.12;41.25
71942;DHT22;59997;53.300;-6.260;2022-08-11T19:13:11;20.85;43.07
71942;DHT22;59997;53.300;-6.260;2022-08-11T19:15:56;20.55;42.91
71942;DHT22;59997;53.300;-6.260;2022-08-11T19:18:41;20.47;43.31
71942;DHT22;59997;53.300;-6.260;2022-08-11T19:21:28;20.28;43.45
71942;DHT22;59997;53.300;-6.260;2022-08-11T19:24:13;20.12;44.27
71942;DHT22;59997;53.300;-6.260;2022-08-11T19:26:59;20.09;41.70
71942;DHT22;59997;53.300;-6.260;2022-08-11T19:29:44;20.08;43.35
71942;DHT22;59997;53.300;-6.260;2022-08-11T19:32:30;19.85;43.21
71942;DHT22;59997;53.300;-6.260;2022-08-11T19:35:14;19.70;43.12
71942;DHT22;59997;53.300;-6.260;2022-08-11T19:38:00;19.61;42.73
71942;DHT22;59997;53.300;-6.260;2022-08-11T19:40:47;19.49;44.38
71942;DHT22;59997;53.300;-6.260;2022-08-11T19:43:33;19.12;44.32
71942;DHT22;59997;53.300;-6.260;2022-08-11T19:46:21;18.81;45.49
71942;DHT22;59997;53.300;-6.260;2022-08-11T19:49:07;18.56;45.55
71942;DHT22;59997;53.300;-6.260;2022-08-11T19:51:52;18.33;44.91